Terminal Aerodrome Forecast
Issued by NWS Charleston, WV

Current Version | Previous Version | Text Only | Print | Product List | Glossary Off
Versions: 1 2 3 4 5 6 7 8 9 10 11 12 13 14 15 16 17 18 19 20 21 22 23 24 25 26 27

000
FTUS41 KRLX 051155 CCA
TAFHTS
TAF COR
KHTS 051155Z 0512/0612 00000KT 3SM BR OVC060
     FM051300 13004KT P6SM BKN060
     FM051900 09004KT P6SM SHRA OVC045
     FM060300 00000KT 6SM BR OVC045
     FM060700 00000KT 5SM BR OVC045
     FM061100 00000KT 2SM BR OVC035=

USA.gov is the U.S. government's official web portal to all federal, state and local government web resources and services.